createdAt,value
2023-01-28T00:01:41.272Z,45.50
2023-01-28T00:04:09.209Z,48.80
2023-01-28T00:06:37.773Z,44.40
2023-01-28T00:09:05.577Z,43.80
2023-01-28T00:11:33.750Z,47.10
2023-01-28T00:14:01.579Z,46.20
2023-01-28T00:16:30.331Z,46.40
2023-01-28T00:18:58.300Z,41.90
2023-01-28T00:21:26.526Z,47.90
2023-01-28T00:23:55.608Z,44.60
2023-01-28T00:26:25.329Z,46.20
2023-01-28T00:28:53.306Z,43.90
2023-01-28T00:31:24.637Z,45.10
2023-01-28T00:33:54.273Z,46.90
2023-01-28T00:36:23.944Z,40.80
2023-01-28T00:38:54.482Z,45.20
2023-01-28T00:41:24.601Z,39.70
2023-01-28T00:43:53.338Z,38.60
2023-01-28T00:46:22.879Z,42.10
2023-01-28T00:48:51.085Z,44.20
2023-01-28T00:51:22.793Z,37.40
2023-01-28T00:53:50.755Z,49.80
2023-01-28T00:56:19.688Z,53.60
2023-01-28T00:58:47.866Z,63.30
2023-01-28T01:01:23.756Z,47.40
2023-01-28T01:03:57.728Z,46.10
2023-01-28T01:06:25.830Z,45.80
2023-01-28T01:08:53.661Z,44.50
2023-01-28T01:11:21.466Z,38.90
2023-01-28T01:13:55.208Z,39.30
2023-01-28T01:16:30.069Z,37.70
2023-01-28T01:18:59.254Z,36.30
2023-01-28T01:21:29.383Z,28.00
2023-01-28T01:23:57.660Z,36.90
2023-01-28T01:26:27.769Z,32.40
2023-01-28T01:28:58.405Z,36.00
2023-01-28T01:31:26.280Z,28.40
2023-01-28T01:33:54.183Z,31.40
2023-01-28T01:36:23.661Z,31.70
2023-01-28T01:38:55.619Z,32.00
2023-01-28T01:41:32.419Z,29.20
2023-01-28T01:44:02.561Z,31.70
2023-01-28T01:46:43.869Z,26.90
2023-01-28T01:49:27.363Z,28.40
2023-01-28T01:52:03.717Z,28.50
2023-01-28T01:54:32.443Z,29.40
2023-01-28T01:57:02.840Z,29.50
2023-01-28T01:59:33.523Z,29.00
2023-01-28T02:02:05.191Z,31.70
2023-01-28T02:04:37.987Z,31.00
2023-01-28T02:07:08.484Z,30.30
2023-01-28T02:09:38.551Z,34.00
2023-01-28T02:12:10.329Z,29.10
2023-01-28T02:14:53.231Z,31.60
2023-01-28T02:17:22.117Z,30.10
2023-01-28T02:19:56.240Z,30.90
2023-01-28T02:22:43.112Z,35.10
2023-01-28T02:25:55.513Z,35.50
2023-01-28T02:28:32.914Z,34.20
2023-01-28T02:31:13.644Z,35.40
2023-01-28T02:33:50.511Z,32.90
2023-01-28T02:36:32.376Z,30.50
2023-01-28T02:39:06.869Z,26.30
2023-01-28T02:41:42.679Z,27.90
2023-01-28T02:44:10.576Z,30.60
2023-01-28T02:46:56.919Z,31.10
2023-01-28T02:49:53.318Z,28.70
2023-01-28T02:53:09.616Z,26.20
2023-01-28T02:55:57.020Z,29.80
2023-01-28T02:58:47.899Z,24.70
2023-01-28T03:01:41.743Z,29.90
2023-01-28T03:04:12.332Z,29.00
2023-01-28T03:06:45.641Z,29.60
2023-01-28T03:09:25.678Z,27.10
2023-01-28T03:12:26.405Z,30.10
2023-01-28T03:15:19.190Z,32.80
2023-01-28T03:18:32.019Z,29.40
2023-01-28T03:21:28.227Z,32.50
2023-01-28T03:24:36.219Z,27.90
2023-01-28T03:27:38.315Z,28.80
2023-01-28T03:30:33.704Z,30.10
2023-01-28T03:33:25.418Z,27.60
2023-01-28T03:36:12.143Z,29.20
2023-01-28T03:38:43.018Z,28.60
2023-01-28T03:41:12.873Z,28.70
2023-01-28T03:43:41.809Z,26.60
2023-01-28T03:46:09.809Z,36.10
2023-01-28T03:48:38.121Z,30.30
2023-01-28T03:51:06.960Z,24.60
2023-01-28T03:53:34.799Z,27.40
2023-01-28T03:56:02.624Z,27.00
2023-01-28T03:58:49.318Z,27.30
2023-01-28T04:01:17.154Z,25.00
2023-01-28T04:03:45.096Z,29.60
2023-01-28T04:06:16.465Z,26.30
2023-01-28T04:08:54.501Z,24.70
2023-01-28T04:11:32.735Z,26.20
2023-01-28T04:14:03.498Z,25.80
2023-01-28T04:16:58.094Z,22.00
2023-01-28T04:19:27.396Z,22.50
2023-01-28T04:21:56.773Z,21.40
2023-01-28T04:24:25.411Z,22.60
2023-01-28T04:26:55.514Z,22.20
2023-01-28T04:29:24.194Z,20.00
2023-01-28T04:31:53.725Z,16.90
2023-01-28T04:34:36.748Z,18.20
2023-01-28T04:37:33.923Z,19.60
2023-01-28T04:40:11.957Z,19.60
2023-01-28T04:42:53.969Z,22.90
2023-01-28T04:45:31.115Z,22.80
2023-01-28T04:48:19.263Z,26.80
2023-01-28T04:50:57.009Z,26.50
2023-01-28T04:53:48.020Z,26.40
2023-01-28T04:56:28.015Z,24.80
2023-01-28T04:58:56.479Z,25.40
2023-01-28T05:01:25.188Z,28.30
2023-01-28T05:03:53.449Z,24.90
2023-01-28T05:06:25.343Z,27.60
2023-01-28T05:08:58.352Z,26.80
2023-01-28T05:11:26.377Z,24.70
2023-01-28T05:13:59.144Z,27.70
2023-01-28T05:16:34.320Z,26.70
2023-01-28T05:19:03.700Z,24.60
2023-01-28T05:21:36.745Z,25.20
2023-01-28T05:24:09.054Z,21.40
2023-01-28T05:26:37.354Z,22.10
2023-01-28T05:29:05.324Z,24.40
2023-01-28T05:31:34.713Z,23.00
2023-01-28T05:34:02.559Z,23.00
2023-01-28T05:36:30.509Z,22.50
2023-01-28T05:38:59.941Z,26.30
2023-01-28T05:41:27.753Z,23.30
2023-01-28T05:44:00.435Z,23.90
2023-01-28T05:46:36.858Z,25.40
2023-01-28T05:49:13.479Z,24.90
2023-01-28T05:52:01.464Z,24.90
2023-01-28T05:54:31.290Z,21.20
2023-01-28T05:56:59.123Z,23.80
2023-01-28T05:59:27.018Z,24.10
2023-01-28T06:01:57.640Z,22.20
2023-01-28T06:04:25.497Z,23.10
2023-01-28T06:06:53.649Z,19.80
2023-01-28T06:09:21.731Z,22.20
2023-01-28T06:11:51.589Z,23.80
2023-01-28T06:14:19.701Z,21.90
2023-01-28T06:17:06.214Z,23.10
2023-01-28T06:19:39.284Z,17.40
2023-01-28T06:22:08.655Z,20.30
2023-01-28T06:24:36.520Z,19.00
2023-01-28T06:27:04.617Z,18.90
2023-01-28T06:29:32.593Z,17.00
2023-01-28T06:32:00.476Z,19.60
2023-01-28T06:34:28.477Z,21.00
2023-01-28T06:36:56.323Z,18.70
2023-01-28T06:39:24.257Z,18.70
2023-01-28T06:41:52.181Z,17.20
2023-01-28T06:44:20.156Z,17.10
2023-01-28T06:46:47.928Z,17.20
2023-01-28T06:49:15.733Z,14.10
2023-01-28T06:51:43.550Z,16.10
2023-01-28T06:54:11.420Z,14.80
2023-01-28T06:56:39.416Z,16.30
2023-01-28T06:59:07.309Z,14.40
2023-01-28T07:01:35.552Z,15.20
2023-01-28T07:04:04.112Z,18.20
2023-01-28T07:06:31.937Z,15.70
2023-01-28T07:09:00.100Z,15.90
2023-01-28T07:11:27.991Z,13.20
2023-01-28T07:13:55.860Z,14.30
2023-01-28T07:16:23.685Z,12.00
2023-01-28T07:18:51.566Z,12.00
2023-01-28T07:21:19.380Z,11.30
2023-01-28T07:23:47.249Z,11.90
2023-01-28T07:26:15.638Z,10.20
2023-01-28T07:28:43.526Z,10.80
2023-01-28T07:31:11.611Z,10.10
2023-01-28T07:33:39.493Z,9.50
2023-01-28T07:36:07.707Z,11.00
2023-01-28T07:38:35.501Z,9.10
2023-01-28T07:41:03.320Z,8.70
2023-01-28T07:43:31.809Z,8.90
2023-01-28T07:46:02.621Z,9.40
2023-01-28T07:48:30.978Z,7.90
2023-01-28T07:51:00.128Z,8.60
2023-01-28T07:53:27.960Z,9.00
2023-01-28T07:56:00.823Z,11.00
2023-01-28T07:58:28.697Z,9.30
2023-01-28T08:00:59.207Z,9.90
2023-01-28T08:03:28.317Z,10.30
2023-01-28T08:05:56.882Z,10.40
2023-01-28T08:08:27.202Z,10.50
2023-01-28T08:10:55.115Z,11.50
2023-01-28T08:13:22.887Z,10.80
2023-01-28T08:15:56.350Z,11.40
2023-01-28T08:20:56.187Z,26.90
2023-01-28T08:23:26.821Z,25.60
2023-01-28T08:25:55.057Z,12.90
2023-01-28T08:28:22.995Z,14.70
2023-01-28T08:30:50.909Z,17.10
2023-01-28T08:33:20.188Z,23.00
2023-01-28T08:35:48.010Z,16.90
2023-01-28T08:38:17.656Z,16.50
2023-01-28T08:40:45.738Z,15.70
2023-01-28T08:43:13.720Z,16.50
2023-01-28T08:45:41.716Z,24.90
2023-01-28T08:48:15.124Z,14.50
2023-01-28T08:50:43.559Z,14.70
2023-01-28T08:53:17.503Z,18.00
2023-01-28T08:55:46.704Z,12.50
2023-01-28T08:58:16.743Z,14.00
2023-01-28T09:00:45.260Z,14.20
2023-01-28T09:03:13.238Z,13.90
2023-01-28T09:05:41.152Z,11.10
2023-01-28T09:08:14.149Z,14.20
2023-01-28T09:10:42.551Z,12.50
2023-01-28T09:13:15.900Z,14.70
2023-01-28T09:15:44.260Z,12.30
2023-01-28T09:18:12.193Z,16.50
2023-01-28T09:20:40.387Z,14.00
2023-01-28T09:23:08.578Z,13.80
2023-01-28T09:25:36.787Z,13.80
2023-01-28T09:28:05.727Z,13.80
2023-01-28T09:30:37.295Z,14.10
2023-01-28T09:33:06.370Z,12.70
2023-01-28T09:35:34.592Z,14.30
2023-01-28T09:38:02.529Z,12.60
2023-01-28T09:40:35.770Z,13.70
2023-01-28T09:43:21.529Z,14.90
2023-01-28T09:45:50.960Z,12.70
2023-01-28T09:48:24.863Z,12.40
2023-01-28T09:50:54.838Z,10.90
2023-01-28T09:53:31.265Z,11.60
2023-01-28T09:56:02.026Z,13.00
2023-01-28T09:58:29.893Z,12.20
2023-01-28T10:01:05.007Z,13.80
2023-01-28T10:03:51.403Z,11.30
2023-01-28T10:06:40.813Z,12.40
2023-01-28T10:09:23.840Z,12.20
2023-01-28T10:12:26.359Z,13.00
2023-01-28T10:15:31.753Z,13.10
2023-01-28T10:18:17.279Z,13.50
2023-01-28T10:21:01.226Z,12.40
2023-01-28T10:24:02.079Z,13.60
2023-01-28T10:26:40.222Z,18.50
2023-01-28T10:29:25.699Z,17.50
2023-01-28T10:32:05.881Z,16.70
2023-01-28T10:34:33.962Z,14.70
2023-01-28T10:37:01.801Z,16.70
2023-01-28T10:39:30.150Z,14.70
2023-01-28T10:41:58.974Z,13.90
2023-01-28T10:44:37.907Z,13.20
2023-01-28T10:47:16.245Z,13.10
2023-01-28T10:49:49.870Z,14.60
2023-01-28T10:54:46.606Z,13.10
2023-01-28T10:57:18.479Z,12.40
2023-01-28T10:59:46.412Z,15.40
2023-01-28T11:02:33.146Z,15.50
2023-01-28T11:05:05.979Z,15.80
2023-01-28T11:07:34.159Z,18.50
2023-01-28T11:10:02.299Z,13.10
2023-01-28T11:12:31.423Z,14.70
2023-01-28T11:15:05.239Z,18.70
2023-01-28T11:17:39.220Z,18.40
2023-01-28T11:20:21.143Z,13.90
2023-01-28T11:22:50.342Z,13.20
2023-01-28T11:25:28.364Z,12.40
2023-01-28T11:27:58.039Z,11.80
2023-01-28T11:30:33.969Z,12.00
2023-01-28T11:33:10.927Z,10.40
2023-01-28T11:35:38.855Z,10.90
2023-01-28T11:38:23.031Z,13.00
2023-01-28T11:40:52.924Z,17.90
2023-01-28T11:43:23.245Z,13.50
2023-01-28T11:46:13.022Z,18.60
2023-01-28T11:48:56.708Z,10.40
2023-01-28T11:51:49.153Z,9.30
2023-01-28T11:54:16.948Z,16.70
2023-01-28T11:56:59.872Z,9.10
2023-01-28T12:00:08.907Z,7.80
2023-01-28T12:02:48.883Z,8.10
2023-01-28T12:05:44.905Z,8.70
2023-01-28T12:08:23.229Z,10.10
2023-01-28T12:11:55.113Z,10.70
2023-01-28T12:14:22.924Z,14.70
2023-01-28T12:17:16.931Z,13.80
2023-01-28T12:20:00.225Z,12.80
2023-01-28T12:23:08.870Z,10.60
2023-01-28T12:25:57.802Z,11.10
2023-01-28T12:28:33.427Z,9.20
2023-01-28T12:31:20.103Z,9.90
2023-01-28T12:34:19.076Z,11.80
2023-01-28T12:37:01.851Z,13.20
2023-01-28T12:39:52.737Z,13.10
2023-01-28T12:42:35.780Z,14.70
2023-01-28T12:45:40.820Z,18.80
2023-01-28T12:48:18.170Z,15.50
2023-01-28T12:50:54.520Z,13.20
2023-01-28T12:53:30.379Z,14.50
2023-01-28T12:56:30.658Z,15.90
2023-01-28T12:59:06.040Z,13.20
2023-01-28T13:01:57.621Z,12.20
2023-01-28T13:04:40.007Z,14.40
2023-01-28T13:07:28.911Z,12.60
2023-01-28T13:10:19.819Z,13.20
2023-01-28T13:12:48.422Z,13.10
2023-01-28T13:15:18.375Z,13.70
2023-01-28T13:18:01.004Z,12.90
2023-01-28T13:20:45.839Z,10.00
2023-01-28T13:23:36.193Z,12.70
2023-01-28T13:26:10.388Z,30.50
2023-01-28T13:28:38.593Z,18.10
2023-01-28T13:31:17.559Z,17.30
2023-01-28T13:34:01.962Z,15.30
2023-01-28T13:36:45.670Z,22.50
2023-01-28T13:41:51.594Z,15.20
2023-01-28T13:44:25.534Z,12.90
2023-01-28T13:47:14.899Z,12.50
2023-01-28T13:49:47.377Z,18.60
2023-01-28T13:52:20.392Z,15.80
2023-01-28T13:54:55.029Z,15.30
2023-01-28T13:58:07.518Z,18.80
2023-01-28T14:00:56.799Z,20.60
2023-01-28T14:03:43.341Z,12.30
2023-01-28T14:06:47.052Z,15.90
2023-01-28T14:09:23.927Z,17.80
2023-01-28T14:12:50.259Z,17.40
2023-01-28T14:15:20.673Z,23.40
2023-01-28T14:17:53.793Z,19.40
2023-01-28T14:20:37.629Z,11.90
2023-01-28T14:23:14.344Z,13.20
2023-01-28T14:26:05.823Z,13.70
2023-01-28T14:28:46.022Z,13.60
2023-01-28T14:31:35.961Z,17.30
2023-01-28T14:34:11.303Z,23.20
2023-01-28T14:36:45.450Z,30.50
2023-01-28T14:39:32.037Z,31.80
2023-01-28T14:42:02.559Z,19.90
2023-01-28T14:44:34.586Z,22.00
2023-01-28T14:47:43.065Z,29.10
2023-01-28T14:50:17.049Z,21.90
2023-01-28T14:53:00.527Z,29.70
2023-01-28T14:55:28.283Z,25.80
2023-01-28T14:58:00.995Z,17.90
2023-01-28T15:00:32.628Z,16.10
2023-01-28T15:03:01.813Z,11.10
2023-01-28T15:05:31.746Z,16.80
2023-01-28T15:07:59.613Z,20.00
2023-01-28T15:10:33.094Z,11.50
2023-01-28T15:13:12.567Z,14.80
2023-01-28T15:15:41.785Z,16.30
2023-01-28T15:18:13.967Z,11.80
2023-01-28T15:20:47.315Z,18.20
2023-01-28T15:23:18.091Z,7.60
2023-01-28T15:25:46.538Z,10.90
2023-01-28T15:28:37.047Z,15.20
2023-01-28T15:31:05.618Z,11.40
2023-01-28T15:33:33.671Z,14.70
2023-01-28T15:36:01.822Z,14.50
2023-01-28T15:38:29.744Z,6.60
2023-01-28T15:41:02.458Z,21.90
2023-01-28T15:43:33.733Z,12.50
2023-01-28T15:46:01.952Z,29.60
2023-01-28T15:48:33.808Z,22.70
2023-01-28T15:51:08.493Z,12.80
2023-01-28T15:53:43.347Z,9.30
2023-01-28T15:56:15.805Z,13.30
2023-01-28T15:58:44.110Z,10.90
2023-01-28T16:01:16.600Z,12.30
2023-01-28T16:03:46.414Z,11.80
2023-01-28T16:06:22.090Z,17.10
2023-01-28T16:08:58.987Z,11.50
2023-01-28T16:11:38.503Z,11.70
2023-01-28T16:14:06.349Z,24.50
2023-01-28T16:16:37.066Z,13.00
2023-01-28T16:19:07.187Z,19.60
2023-01-28T16:21:38.502Z,17.50
2023-01-28T16:24:28.352Z,15.60
2023-01-28T16:27:20.133Z,13.20
2023-01-28T16:29:47.943Z,20.10
2023-01-28T16:32:35.421Z,20.30
2023-01-28T16:35:12.099Z,17.90
2023-01-28T16:37:41.710Z,22.30
2023-01-28T16:40:12.559Z,17.10
2023-01-28T16:42:40.601Z,15.00
2023-01-28T16:45:16.486Z,19.90
2023-01-28T16:47:44.923Z,19.90
2023-01-28T16:50:14.443Z,26.20
2023-01-28T16:52:44.399Z,23.90
2023-01-28T16:55:14.592Z,16.20
2023-01-28T16:57:44.367Z,14.00
2023-01-28T17:00:18.403Z,39.90
2023-01-28T17:02:46.783Z,36.40
2023-01-28T17:05:17.842Z,30.10
2023-01-28T17:07:49.641Z,51.60
2023-01-28T17:10:17.802Z,70.50
2023-01-28T17:12:48.132Z,32.80
2023-01-28T17:15:16.276Z,32.70
2023-01-28T17:17:48.194Z,24.90
2023-01-28T17:20:16.594Z,36.80
2023-01-28T17:22:44.858Z,22.70
2023-01-28T17:25:13.080Z,20.00
2023-01-28T17:27:40.967Z,17.40
2023-01-28T17:30:09.786Z,19.50
2023-01-28T17:32:37.682Z,20.70
2023-01-28T17:35:06.277Z,23.40
2023-01-28T17:37:34.103Z,23.70
2023-01-28T17:40:03.067Z,23.20
2023-01-28T17:42:31.175Z,28.10
2023-01-28T17:45:03.063Z,19.80
2023-01-28T17:47:31.439Z,15.20
2023-01-28T17:50:00.575Z,18.70
2023-01-28T17:52:29.672Z,17.10
2023-01-28T17:54:57.586Z,15.60
2023-01-28T17:57:25.851Z,16.60
2023-01-28T17:59:53.640Z,13.70
2023-01-28T18:02:21.510Z,15.00
2023-01-28T18:04:49.422Z,23.10
2023-01-28T18:07:17.200Z,18.50
2023-01-28T18:09:47.889Z,17.30
2023-01-28T18:12:16.304Z,20.50
2023-01-28T18:14:44.183Z,19.10
2023-01-28T18:17:12.314Z,28.50
2023-01-28T18:19:40.222Z,32.10
2023-01-28T18:22:08.353Z,34.10
2023-01-28T18:24:36.361Z,29.30
2023-01-28T18:27:04.284Z,29.10
2023-01-28T18:29:32.268Z,34.00
2023-01-28T18:32:01.360Z,25.20
2023-01-28T18:34:31.633Z,23.90
2023-01-28T18:36:59.673Z,29.70
2023-01-28T18:39:30.273Z,27.70
2023-01-28T18:41:59.180Z,29.70
2023-01-28T18:44:30.173Z,30.40
2023-01-28T18:46:58.570Z,30.10
2023-01-28T18:49:26.443Z,34.30
2023-01-28T18:51:55.480Z,34.30
2023-01-28T18:54:23.885Z,30.20
2023-01-28T18:56:51.902Z,19.30
2023-01-28T18:59:19.904Z,19.40
2023-01-28T19:01:47.976Z,21.20
2023-01-28T19:04:16.429Z,18.50
2023-01-28T19:06:45.087Z,19.90
2023-01-28T19:09:15.020Z,28.50
2023-01-28T19:11:43.268Z,36.60
2023-01-28T19:14:15.062Z,21.40
2023-01-28T19:16:43.742Z,18.60
2023-01-28T19:19:12.205Z,15.80
2023-01-28T19:21:40.256Z,15.40
2023-01-28T19:24:09.904Z,12.80
2023-01-28T19:26:38.576Z,11.90
2023-01-28T19:29:09.384Z,11.00
2023-01-28T19:31:38.495Z,11.40
2023-01-28T19:34:07.097Z,13.70
2023-01-28T19:36:35.379Z,14.00
2023-01-28T19:39:06.949Z,13.80
2023-01-28T19:41:36.532Z,14.70
2023-01-28T19:44:05.017Z,10.80
2023-01-28T19:46:34.528Z,10.50
2023-01-28T19:49:03.971Z,15.30
2023-01-28T19:51:32.119Z,21.10
2023-01-28T19:53:59.940Z,27.00
2023-01-28T19:56:29.869Z,41.10
2023-01-28T19:58:57.724Z,34.30
2023-01-28T20:01:29.869Z,21.40
2023-01-28T20:04:00.038Z,14.60
2023-01-28T20:06:30.599Z,18.90
2023-01-28T20:09:04.468Z,20.10
2023-01-28T20:11:32.393Z,18.50
2023-01-28T20:14:00.839Z,18.20
2023-01-28T20:16:31.792Z,16.60
2023-01-28T20:19:06.867Z,18.20
2023-01-28T20:21:35.703Z,18.30
2023-01-28T20:24:04.810Z,21.70
2023-01-28T20:26:37.405Z,18.20
2023-01-28T20:29:11.184Z,18.70
2023-01-28T20:31:41.172Z,21.00
2023-01-28T20:34:14.862Z,20.20
2023-01-28T20:39:11.810Z,27.00
2023-01-28T20:41:39.760Z,25.40
2023-01-28T20:44:07.730Z,22.20
2023-01-28T20:46:37.230Z,19.60
2023-01-28T20:49:08.120Z,16.20
2023-01-28T20:51:36.576Z,17.90
2023-01-28T20:54:04.414Z,19.40
2023-01-28T20:56:32.633Z,18.50
2023-01-28T20:59:03.117Z,17.50
2023-01-28T21:01:34.519Z,20.40
2023-01-28T21:04:04.327Z,30.40
2023-01-28T21:06:32.949Z,35.20
2023-01-28T21:09:01.069Z,31.80
2023-01-28T21:11:29.643Z,34.40
2023-01-28T21:13:58.148Z,37.30
2023-01-28T21:16:26.131Z,25.60
2023-01-28T21:18:54.115Z,14.90
2023-01-28T21:21:25.671Z,14.50
2023-01-28T21:23:57.967Z,13.50
2023-01-28T21:26:26.805Z,13.60
2023-01-28T21:28:56.216Z,14.50
2023-01-28T21:31:26.516Z,33.30
2023-01-28T21:33:58.112Z,30.60
2023-01-28T21:36:26.816Z,19.30
2023-01-28T21:38:57.220Z,21.30
2023-01-28T21:41:25.893Z,24.50
2023-01-28T21:43:55.148Z,25.20
2023-01-28T21:46:32.235Z,23.40
2023-01-28T21:49:03.221Z,20.20
2023-01-28T21:51:46.075Z,18.60
2023-01-28T21:54:19.410Z,25.40
2023-01-28T21:56:49.237Z,19.70
2023-01-28T21:59:30.617Z,16.60
2023-01-28T22:02:10.124Z,15.60
2023-01-28T22:04:40.021Z,12.70
2023-01-28T22:07:13.195Z,10.90
2023-01-28T22:09:42.382Z,9.10
2023-01-28T22:12:10.871Z,10.10
2023-01-28T22:14:39.491Z,9.80
2023-01-28T22:17:11.029Z,10.30
2023-01-28T22:19:39.676Z,9.10
2023-01-28T22:22:07.900Z,9.80
2023-01-28T22:24:35.846Z,10.40
2023-01-28T22:27:03.855Z,12.40
2023-01-28T22:29:31.859Z,11.70
2023-01-28T22:32:00.509Z,14.90
2023-01-28T22:34:28.359Z,13.40
2023-01-28T22:36:56.318Z,10.30
2023-01-28T22:39:24.507Z,14.00
2023-01-28T22:41:52.506Z,12.30
2023-01-28T22:44:20.345Z,11.10
2023-01-28T22:46:48.341Z,9.80
2023-01-28T22:49:16.253Z,8.60
2023-01-28T22:51:44.169Z,7.00
2023-01-28T22:54:14.740Z,7.20
2023-01-28T22:56:42.762Z,7.10
2023-01-28T22:59:11.852Z,6.50
2023-01-28T23:01:40.378Z,8.00
2023-01-28T23:04:08.391Z,8.40
2023-01-28T23:06:37.445Z,7.40
2023-01-28T23:09:05.410Z,9.80
2023-01-28T23:11:33.368Z,8.70
2023-01-28T23:14:21.943Z,7.20
2023-01-28T23:17:09.166Z,7.40
2023-01-28T23:19:55.514Z,9.90
2023-01-28T23:22:52.418Z,8.70
2023-01-28T23:25:22.729Z,9.00
2023-01-28T23:27:50.874Z,9.90
2023-01-28T23:30:24.972Z,6.50
2023-01-28T23:32:57.699Z,10.70
2023-01-28T23:35:25.923Z,9.70
2023-01-28T23:37:54.926Z,10.10
2023-01-28T23:40:24.594Z,10.20
2023-01-28T23:42:53.763Z,8.20
2023-01-28T23:45:22.260Z,9.80
2023-01-28T23:47:50.245Z,11.10
2023-01-28T23:50:18.486Z,13.40
2023-01-28T23:52:46.542Z,8.50
2023-01-28T23:55:15.903Z,12.40
2023-01-28T23:57:43.721Z,12.00
